Time,TemperatureF,DewpointF,PressureIn,WindDirection,WindDirectionDegrees,WindSpeedMPH,WindSpeedGustMPH,Humidity,HourlyPrecipIn,Conditions,Clouds,dailyrainin,SolarRadiationWatts/m^2,SoftwareType,DateUTC
2013-02-09 00:01:00,17.6,14.7,29.64,North,350,15.0,30.0,88,0.00,RA,SKC,0.02,0.0,WeatherDisplay:10.37,2013-02-09 05:01:00,
2013-02-09 00:16:00,17.6,14.7,29.62,North,355,16.0,33.0,88,0.02,CLR,SKC,0.02,0.0,WeatherDisplay:10.37,2013-02-09 05:16:00,
2013-02-09 00:31:00,17.6,14.7,29.62,North,350,18.0,33.0,88,0.00,,SKC,0.02,0.0,WeatherDisplay:10.37,2013-02-09 05:31:00,
2013-02-09 00:46:00,17.6,14.7,29.60,North,350,18.0,32.0,88,0.00,,SKC,0.02,0.0,WeatherDisplay:10.37,2013-02-09 05:46:00,
2013-02-09 01:01:00,17.6,14.7,29.60,North,360,16.0,35.0,88,0.00,CLR,SKC,0.04,0.0,WeatherDisplay:10.37,2013-02-09 06:01:00,
2013-02-09 01:16:00,17.1,14.6,29.59,North,360,20.0,38.0,90,0.02,CLR,SKC,0.04,0.0,WeatherDisplay:10.37,2013-02-09 06:16:00,
2013-02-09 01:31:00,17.1,14.6,29.60,North,360,20.0,38.0,90,0.00,CLR,SKC,0.04,0.0,WeatherDisplay:10.37,2013-02-09 06:31:00,
2013-02-09 01:46:00,17.6,14.7,29.62,North,350,21.0,38.0,88,0.00,CLR,SKC,0.04,0.0,WeatherDisplay:10.37,2013-02-09 06:46:00,
2013-02-09 02:01:00,17.6,14.7,29.63,NNW,340,21.0,35.0,88,0.00,CLR,SKC,0.06,0.0,WeatherDisplay:10.37,2013-02-09 07:01:00,
2013-02-09 02:16:00,17.6,14.7,29.62,North,350,16.0,36.0,88,0.02,CLR,SKC,0.06,0.0,WeatherDisplay:10.37,2013-02-09 07:16:00,
2013-02-09 02:31:00,17.6,14.7,29.62,North,350,16.0,33.0,88,0.00,CLR,SKC,0.06,0.0,WeatherDisplay:10.37,2013-02-09 07:31:00,
2013-02-09 02:46:00,17.6,14.7,29.65,North,350,16.0,33.0,88,0.00,CLR,SKC,0.06,0.0,WeatherDisplay:10.37,2013-02-09 07:46:00,
2013-02-09 03:01:00,17.6,14.7,29.64,North,350,16.0,33.0,88,0.00,CLR,SKC,0.07,0.0,WeatherDisplay:10.37,2013-02-09 08:01:00,
2013-02-09 03:16:00,19.0,16.6,29.60,NNW,340,20.0,37.0,90,0.01,CLR,SKC,0.07,0.0,WeatherDisplay:10.37,2013-02-09 08:16:00,
2013-02-09 03:31:00,19.0,16.6,29.60,NNW,340,20.0,37.0,90,0.00,CLR,SKC,0.07,0.0,WeatherDisplay:10.37,2013-02-09 08:31:00,
2013-02-09 03:46:00,19.0,16.6,29.61,NNW,340,20.0,37.0,90,0.00,CLR,SKC,0.07,0.0,WeatherDisplay:10.37,2013-02-09 08:46:00,
2013-02-09 04:01:00,19.0,16.6,29.61,NNW,340,20.0,37.0,90,0.00,CLR,SKC,0.09,0.0,WeatherDisplay:10.37,2013-02-09 09:01:00,
2013-02-09 04:16:00,21.2,18.5,29.62,NNW,340,20.0,43.0,89,0.02,CLR,SKC,0.09,0.0,WeatherDisplay:10.37,2013-02-09 09:16:00,
2013-02-09 04:31:00,21.2,18.5,29.62,NNW,340,20.0,35.0,89,0.00,CLR,SKC,0.09,0.0,WeatherDisplay:10.37,2013-02-09 09:31:00,
2013-02-09 04:46:00,21.2,20.0,29.62,NNW,340,18.0,35.0,95,0.00,,SKC,0.09,0.0,WeatherDisplay:10.37,2013-02-09 09:46:00,
2013-02-09 05:01:00,21.2,20.0,29.62,NNW,340,18.0,35.0,95,0.00,,SKC,0.10,0.0,WeatherDisplay:10.37,2013-02-09 10:01:00,
2013-02-09 05:16:00,21.2,20.0,29.61,NNW,330,22.0,37.0,95,0.01,,SKC,0.10,0.0,WeatherDisplay:10.37,2013-02-09 10:16:00,
2013-02-09 05:31:00,21.2,20.0,29.62,NNW,330,21.0,37.0,95,0.00,,SKC,0.10,0.0,WeatherDisplay:10.37,2013-02-09 10:31:00,
2013-02-09 05:46:00,21.2,20.0,29.62,NNW,330,21.0,35.0,95,0.00,,SKC,0.10,0.0,WeatherDisplay:10.37,2013-02-09 10:46:00,
2013-02-09 06:01:00,21.2,20.0,29.62,NNW,330,21.0,35.0,95,0.00,,SKC,0.10,0.0,WeatherDisplay:10.37,2013-02-09 11:01:00,
2013-02-09 06:16:00,21.0,18.5,29.62,NW,320,17.0,35.0,90,0.01,CLR,SKC,0.11,0.0,WeatherDisplay:10.37,2013-02-09 11:16:00,
2013-02-09 06:31:00,21.0,18.5,29.64,NW,320,17.0,33.0,90,0.00,,SKC,0.11,0.0,WeatherDisplay:10.37,2013-02-09 11:31:00,
2013-02-09 06:46:00,21.2,18.5,29.65,NNW,330,14.0,33.0,89,0.00,,SKC,0.11,0.0,WeatherDisplay:10.37,2013-02-09 11:46:00,
2013-02-09 07:01:00,21.2,18.5,29.65,NNW,330,14.0,30.0,89,0.00,,SKC,0.12,0.0,WeatherDisplay:10.37,2013-02-09 12:01:00,
2013-02-09 07:16:00,21.2,18.5,29.66,NNW,335,18.0,32.0,89,0.01,,SKC,0.12,0.0,WeatherDisplay:10.37,2013-02-09 12:16:00,
2013-02-09 07:31:00,21.2,18.5,29.66,NNW,330,16.0,32.0,89,0.00,,SKC,0.12,0.0,WeatherDisplay:10.37,2013-02-09 12:31:00,
2013-02-09 07:46:00,21.2,18.5,29.66,NNW,330,15.0,35.0,89,0.00,OVC,SKC,0.12,0.0,WeatherDisplay:10.37,2013-02-09 12:46:00,
2013-02-09 08:01:00,19.4,18.2,29.68,NW,320,20.0,32.0,95,0.00,OVC,SKC,0.12,0.0,WeatherDisplay:10.37,2013-02-09 13:01:00,
2013-02-09 08:16:00,19.9,16.7,29.71,NNW,330,20.0,32.0,87,0.00,OVC,SKC,0.12,0.0,WeatherDisplay:10.37,2013-02-09 13:16:00,
2013-02-09 08:31:00,19.4,16.7,29.72,NNW,330,16.0,32.0,89,0.00,-SN,SKC,0.12,0.0,WeatherDisplay:10.37,2013-02-09 13:31:00,
2013-02-09 08:46:00,19.4,16.7,29.69,NW,310,16.0,32.0,89,0.00,-SN,SKC,0.12,0.0,WeatherDisplay:10.37,2013-02-09 13:46:00,
2013-02-09 09:01:00,19.4,16.7,29.70,NW,310,16.0,32.0,89,0.00,-SN,SKC,0.12,0.0,WeatherDisplay:10.37,2013-02-09 14:01:00,
2013-02-09 09:16:00,19.0,15.5,29.70,NW,310,16.0,30.0,86,0.00,-SN,SKC,0.12,0.0,WeatherDisplay:10.37,2013-02-09 14:16:00,
2013-02-09 09:31:00,19.0,15.5,29.69,NW,310,16.0,30.0,86,0.00,-SN,SKC,0.12,0.0,WeatherDisplay:10.37,2013-02-09 14:31:00,
2013-02-09 09:46:00,19.4,13.4,29.70,NW,320,13.0,30.0,77,0.01,-SN,SKC,0.13,0.0,WeatherDisplay:10.37,2013-02-09 14:46:00,
2013-02-09 10:01:00,17.6,13.0,29.74,NW,320,16.0,30.0,82,0.00,-SN,SKC,0.14,0.0,WeatherDisplay:10.37,2013-02-09 15:01:00,
2013-02-09 10:16:00,17.6,13.0,29.73,NW,315,16.0,30.0,82,0.01,-SN,SKC,0.14,0.0,WeatherDisplay:10.37,2013-02-09 15:16:00,
2013-02-09 10:31:00,17.6,13.0,29.75,NW,320,16.0,28.0,82,0.00,-SN,SKC,0.14,0.0,WeatherDisplay:10.37,2013-02-09 15:31:00,
2013-02-09 10:46:00,17.6,13.0,29.75,NW,320,16.0,28.0,82,0.00,-SN,SKC,0.14,0.0,WeatherDisplay:10.37,2013-02-09 15:46:00,
2013-02-09 11:01:00,19.4,13.4,29.76,NW,310,18.0,29.0,77,0.00,-SN,SKC,0.14,0.0,WeatherDisplay:10.37,2013-02-09 16:01:00,
2013-02-09 11:16:00,19.4,13.4,29.76,NW,315,15.0,29.0,77,0.00,-SN,SKC,0.14,0.0,WeatherDisplay:10.37,2013-02-09 16:16:00,
2013-02-09 11:31:00,19.4,13.4,29.77,NW,310,15.0,29.0,77,0.00,-SN,SKC,0.14,0.0,WeatherDisplay:10.37,2013-02-09 16:31:00,
2013-02-09 11:46:00,19.4,13.4,29.77,NW,320,17.0,32.0,77,0.00,OVC,SKC,0.14,0.0,WeatherDisplay:10.37,2013-02-09 16:46:00,
2013-02-09 12:01:00,19.4,13.4,29.81,NW,320,17.0,32.0,77,0.00,OVC,SKC,0.14,0.0,WeatherDisplay:10.37,2013-02-09 17:01:00,
2013-02-09 12:16:00,21.0,13.1,29.77,NNW,330,23.0,36.0,71,0.00,FEW,SKC,0.14,0.0,WeatherDisplay:10.37,2013-02-09 17:16:00,
2013-02-09 12:31:00,21.0,13.1,29.79,NNW,330,23.0,36.0,71,0.00,FEW,SKC,0.14,0.0,WeatherDisplay:10.37,2013-02-09 17:31:00,
2013-02-09 12:46:00,21.0,13.1,29.79,NNW,330,23.0,36.0,71,0.00,FEW,SKC,0.14,0.0,WeatherDisplay:10.37,2013-02-09 17:46:00,
2013-02-09 13:01:00,21.0,13.1,29.81,NNW,330,23.0,36.0,71,0.00,FEW,SKC,0.14,0.0,WeatherDisplay:10.37,2013-02-09 18:01:00,
2013-02-09 13:16:00,21.0,12.4,29.80,NW,320,20.0,36.0,69,0.00,CLR,SKC,0.14,0.0,WeatherDisplay:10.37,2013-02-09 18:16:00,
2013-02-09 13:31:00,21.0,12.4,29.80,NW,320,20.0,35.0,69,0.00,CLR,SKC,0.14,0.0,WeatherDisplay:10.37,2013-02-09 18:31:00,
2013-02-09 13:46:00,21.0,12.4,29.81,NW,320,20.0,35.0,69,0.00,CLR,SKC,0.14,0.0,WeatherDisplay:10.37,2013-02-09 18:46:00,
2013-02-09 14:01:00,21.0,12.4,29.84,NW,320,20.0,35.0,69,0.00,CLR,SKC,0.14,0.0,WeatherDisplay:10.37,2013-02-09 19:01:00,
2013-02-09 14:16:00,21.9,13.3,29.85,NW,320,12.0,35.0,69,0.00,OVC,SKC,0.14,0.0,WeatherDisplay:10.37,2013-02-09 19:16:00,
2013-02-09 14:31:00,21.9,13.3,29.85,NW,320,12.0,29.0,69,0.00,OVC,SKC,0.14,0.0,WeatherDisplay:10.37,2013-02-09 19:31:00,
2013-02-09 14:46:00,21.9,13.3,29.85,NW,320,12.0,29.0,69,0.00,OVC,SKC,0.14,0.0,WeatherDisplay:10.37,2013-02-09 19:46:00,
2013-02-09 15:01:00,21.9,13.3,29.87,NW,320,12.0,29.0,69,0.00,OVC,SKC,0.14,0.0,WeatherDisplay:10.37,2013-02-09 20:01:00,
2013-02-09 15:16:00,23.0,11.9,29.85,NW,320,22.0,33.0,62,0.00,OVC,SKC,0.14,0.0,WeatherDisplay:10.37,2013-02-09 20:16:00,
2013-02-09 15:31:00,23.0,11.9,29.90,NW,320,22.0,33.0,62,0.00,OVC,SKC,0.14,0.0,WeatherDisplay:10.37,2013-02-09 20:31:00,
2013-02-09 15:46:00,23.0,11.9,29.88,NW,320,22.0,33.0,62,0.00,OVC,SKC,0.14,0.0,WeatherDisplay:10.37,2013-02-09 20:46:00,
2013-02-09 16:01:00,23.0,11.9,29.91,NW,320,22.0,33.0,62,0.00,OVC,SKC,0.14,0.0,WeatherDisplay:10.37,2013-02-09 21:01:00,
2013-02-09 16:16:00,23.0,12.6,29.93,NNW,340,22.0,35.0,64,0.00,OVC,SKC,0.14,0.0,WeatherDisplay:10.37,2013-02-09 21:16:00,
2013-02-09 16:31:00,23.0,12.6,29.90,NNW,340,22.0,35.0,64,0.00,OVC,SKC,0.14,0.0,WeatherDisplay:10.37,2013-02-09 21:31:00,
2013-02-09 16:46:00,23.0,12.6,29.91,NNW,340,22.0,35.0,64,0.00,OVC,SKC,0.14,0.0,WeatherDisplay:10.37,2013-02-09 21:46:00,
2013-02-09 17:01:00,23.0,12.6,29.93,NNW,340,22.0,35.0,64,0.00,OVC,SKC,0.14,0.0,WeatherDisplay:10.37,2013-02-09 22:01:00,
2013-02-09 17:16:00,21.9,9.8,29.93,NNW,330,14.0,35.0,59,0.00,FEW,SKC,0.14,0.0,WeatherDisplay:10.37,2013-02-09 22:16:00,
2013-02-09 17:31:00,21.9,9.8,29.95,NNW,330,14.0,24.0,59,0.00,FEW,SKC,0.14,0.0,WeatherDisplay:10.37,2013-02-09 22:31:00,
2013-02-09 17:46:00,21.9,9.8,29.96,NNW,330,14.0,24.0,59,0.00,FEW,SKC,0.14,0.0,WeatherDisplay:10.37,2013-02-09 22:46:00,
2013-02-09 18:01:00,21.9,9.8,29.96,NNW,330,14.0,24.0,59,0.00,FEW,SKC,0.14,0.0,WeatherDisplay:10.37,2013-02-09 23:01:00,
2013-02-09 18:16:00,19.9,8.6,29.98,NNW,330,14.0,25.0,61,0.00,CLR,SKC,0.14,0.0,WeatherDisplay:10.37,2013-02-09 23:16:00,
2013-02-09 18:31:00,19.9,8.6,29.99,NNW,330,14.0,25.0,61,0.00,CLR,SKC,0.14,0.0,WeatherDisplay:10.37,2013-02-09 23:31:00,
2013-02-09 18:46:00,19.9,8.6,30.01,NNW,330,14.0,25.0,61,0.00,CLR,SKC,0.14,0.0,WeatherDisplay:10.37,2013-02-09 23:46:00,
2013-02-09 19:01:00,19.9,8.6,30.01,NNW,330,14.0,25.0,61,0.00,CLR,SKC,0.14,0.0,WeatherDisplay:10.37,2013-02-10 00:01:00,
2013-02-09 19:16:00,18.0,6.8,30.01,NNW,330,14.0,32.0,61,0.00,CLR,SKC,0.14,0.0,WeatherDisplay:10.37,2013-02-10 00:16:00,
2013-02-09 19:31:00,18.0,6.8,30.04,NNW,330,14.0,32.0,61,0.00,CLR,SKC,0.14,0.0,WeatherDisplay:10.37,2013-02-10 00:31:00,
2013-02-09 19:46:00,18.0,6.8,30.03,NNW,330,14.0,32.0,61,0.00,CLR,SKC,0.14,0.0,WeatherDisplay:10.37,2013-02-10 00:46:00,
2013-02-09 20:01:00,18.0,6.8,30.05,NNW,330,14.0,32.0,61,0.00,CLR,SKC,0.14,0.0,WeatherDisplay:10.37,2013-02-10 01:01:00,
2013-02-09 20:31:00,17.1,5.5,30.06,NW,320,14.0,32.0,60,0.00,CLR,SKC,0.14,0.0,WeatherDisplay:10.37,2013-02-10 01:31:00,
2013-02-09 20:46:00,17.1,5.5,30.06,NW,320,14.0,32.0,60,0.00,CLR,SKC,0.14,0.0,WeatherDisplay:10.37,2013-02-10 01:46:00,
2013-02-09 21:01:00,17.1,5.5,30.08,NW,320,14.0,32.0,60,0.00,CLR,SKC,0.14,0.0,WeatherDisplay:10.37,2013-02-10 02:01:00,
2013-02-09 21:16:00,16.0,4.5,30.08,NW,320,12.0,32.0,60,0.00,CLR,SKC,0.14,0.0,WeatherDisplay:10.37,2013-02-10 02:16:00,
2013-02-09 21:31:00,16.0,4.5,30.07,NW,320,12.0,25.0,60,0.00,CLR,SKC,0.14,0.0,WeatherDisplay:10.37,2013-02-10 02:31:00,
2013-02-09 21:46:00,16.0,4.5,30.09,NW,320,12.0,25.0,60,0.00,CLR,SKC,0.14,0.0,WeatherDisplay:10.37,2013-02-10 02:46:00,
2013-02-09 22:01:00,16.0,4.5,30.10,NW,320,12.0,25.0,60,0.00,CLR,SKC,0.14,0.0,WeatherDisplay:10.37,2013-02-10 03:01:00,
2013-02-09 22:16:00,15.1,3.7,30.09,NW,310,13.0,25.0,60,0.00,CLR,SKC,0.14,0.0,WeatherDisplay:10.37,2013-02-10 03:16:00,
2013-02-09 22:31:00,15.1,3.7,30.11,NW,310,13.0,25.0,60,0.00,CLR,SKC,0.14,0.0,WeatherDisplay:10.37,2013-02-10 03:31:00,
2013-02-09 22:46:00,15.1,3.7,30.09,NW,310,13.0,25.0,60,0.00,CLR,SKC,0.14,0.0,WeatherDisplay:10.37,2013-02-10 03:46:00,
2013-02-09 23:01:00,15.1,3.7,30.11,NW,310,13.0,25.0,60,0.00,CLR,SKC,0.14,0.0,WeatherDisplay:10.37,2013-02-10 04:01:00,
2013-02-09 23:16:00,15.1,2.9,30.11,NW,310,10.0,25.0,58,0.00,CLR,SKC,0.14,0.0,WeatherDisplay:10.37,2013-02-10 04:16:00,
2013-02-09 23:31:00,15.1,2.9,30.12,NW,310,10.0,10.0,58,0.00,CLR,SKC,0.14,0.0,WeatherDisplay:10.37,2013-02-10 04:31:00,